Aérodrome :
LOGIN :

S'inscrire | Disclaimer

   EN    FR    IT 

 










Légende :    VFR   VFR Marginal   IFR   IFR Intensif   IFR Très Intensif
Visi : 
Plafond : 
>= 8 km
>= 3000ft
5 à 8 km
1000 à 3000 ft
1500m à 5 km
500 à 1000 ft
800 à 1500m
200 à 500 ft
< 800m
< 200 ft
Symboles :   Orages  Brouillard  Fortes neiges  Fortes précipitations  Vent > 20 kt
SIGMETs :   Divers  Orages  Givrage  Turbulence  Onde Orograph.  Cendres Volcan.







- Altitude de l'aérodrome : 3368 ft


LSGC - Les Eplatures

DERNIER METAR :
  • 240920Z AUTO 03006KT 350V070 9999 NCD 16/08 Q1025

METARs EXPIRÉS :
  • 240850Z AUTO 06005KT 010V140 9999 FEW022 16/10 Q1025
  • 240820Z AUTO 06006KT 030V120 9999 FEW018 16/11 Q1025
  • 240750Z 05005KT 350V110 9999 SCT014 15/11 Q1025
  • 240720Z 08005KT 050V150 9999 SCT014 14/11 Q1025
  • 240650Z 06006KT 030V100 9999 SCT010 13/10 Q1025

TAF TAF LSGC
Valide du 24 à 09h jusqu'au 24 à 18h UTC


240825Z 2409/2418 05010KT 9999 FEW030
Pas de NOTAMs connus pour ce terrain.



MET'MAP, la Météo Aéronautique d'un coup d'oeil ! - Copyright ORBIFLY Décembre 2007 - Disclaimer

ORBIFLY MET'MAP TEAM :

Programmation & Développement : Alexandra Zaïnal
Conception & Développement : Baudouin d'Aumeries
Co-Programmation & Développement : Marc-Olivier Méhu
Soutien technique & logistique : Manuel Goepfert

Contact : metmap@orbifly.com




SOURCES & CREDITS :

   NOAA